Time;durP1;ratioP1;P1;durP2;ratioP2;P2;SDS_P1;SDS_P2;PMS_P1;PMS_P2;Temp;Humidity;BMP_temperature;BMP_pressure;BME280_temperature;BME280_humidity;BME280_pressure;Samples;Min_cycle;Max_cycle;Signal;HPM_P1;HPM_P2
2024/01/14 00:01:22;;;;;;;;;;;-2.50;99.90;;;-3.42;100.00;97982.59;5044608;28;1517;-67
2024/01/14 00:03:50;;;;;;;;;;;-2.40;99.90;;;-3.40;100.00;97979.31;5049711;28;1252;-69
2024/01/14 00:06:17;;;;;;;;;;;-2.40;99.90;;;-3.48;100.00;97974.91;5024080;28;1417;-68
2024/01/14 00:08:44;;;;;;;;;;;-2.40;99.90;;;-3.62;100.00;97977.16;5024257;28;1977;-68
2024/01/14 00:11:11;;;;;;;;;;;-2.40;99.90;;;-3.58;100.00;97978.91;5042276;28;2420;-65
2024/01/14 00:13:38;;;;;;;;;;;-2.40;99.90;;;-3.39;100.00;97975.91;5024574;28;1410;-66
2024/01/14 00:16:05;;;;;;;;;;;-2.40;99.90;;;-3.57;100.00;97967.97;5043624;28;1984;-68
2024/01/14 00:18:32;;;;;;;;;;;-2.40;99.90;;;-3.46;100.00;97963.94;5041801;28;1411;-67
2024/01/14 00:20:59;;;;;;;;;;;-2.50;99.90;;;-3.55;100.00;97960.38;5041997;28;1453;-68
2024/01/14 00:23:25;;;;;;;;;;;-2.50;99.90;;;-3.62;100.00;97960.25;5048963;28;2201;-68
2024/01/14 00:25:52;;;;;;;;;;;-2.40;99.90;;;-3.62;100.00;97964.47;5011011;28;1311;-67
2024/01/14 00:28:19;;;;;;;;;;;-2.50;99.90;;;-3.65;100.00;97957.66;5043476;28;1479;-67
2024/01/14 00:30:49;;;;;;;;;;;-2.50;99.90;;;-3.67;100.00;97940.69;5042264;28;1432;-67
2024/01/14 00:33:16;;;;;;;;;;;-2.40;99.90;;;-3.59;100.00;97945.09;5047835;28;1205;-66
2024/01/14 00:35:43;;;;;;;;;;;-2.50;99.90;;;-3.49;100.00;97935.97;5043542;28;1391;-68
2024/01/14 00:38:13;;;;;;;;;;;-2.60;99.90;;;-3.72;100.00;97925.38;5022963;28;3278;-69
2024/01/14 00:40:40;;;;;;;;;;;-2.60;99.90;;;-3.62;100.00;97917.13;5040443;28;1490;-67
2024/01/14 00:43:08;;;;;;;;;;;-2.60;99.90;;;-3.63;100.00;97917.94;5023184;28;1371;-67
2024/01/14 00:45:35;;;;;;;;;;;-2.60;99.90;;;-3.68;100.00;97916.16;5044351;28;1609;-66
2024/01/14 00:48:02;;;;;;;;;;;-2.60;99.90;;;-3.79;100.00;97911.75;5041463;28;1158;-67
2024/01/14 00:50:30;;;;;;;;;;;-2.60;99.90;;;-3.70;100.00;97908.50;5024113;28;1931;-67
2024/01/14 00:52:57;;;;;;;;;;;-2.60;99.90;;;-3.59;100.00;97907.03;5024191;28;1115;-68
2024/01/14 00:55:24;;;;;;;;;;;-2.70;99.90;;;-3.69;100.00;97905.16;5044366;28;1432;-69
2024/01/14 00:57:51;;;;;;;;;;;-2.60;99.90;;;-3.40;100.00;97904.81;5041974;28;1903;-68
2024/01/14 01:00:17;;;;;;;;;;;-2.50;99.90;;;-3.46;100.00;97904.72;5004539;28;1483;-67
2024/01/14 01:02:45;;;;;;;;;;;-2.50;99.90;;;-3.42;100.00;97904.81;5044327;28;1427;-68
2024/01/14 01:05:12;;;;;;;;;;;-2.50;99.90;;;-3.57;100.00;97881.69;5041680;28;2577;-68
2024/01/14 01:07:39;;;;;;;;;;;-2.50;99.90;;;-3.80;100.00;97877.03;5044025;28;1563;-69
2024/01/14 01:10:06;;;;;;;;;;;-2.50;99.90;;;-3.72;100.00;97889.00;5042965;28;1443;-67
2024/01/14 01:12:34;;;;;;;;;;;-2.60;99.90;;;-4.00;100.00;97889.34;5042936;28;2611;-66
2024/01/14 01:15:00;;;;;;;;;;;-2.70;99.90;;;-3.89;100.00;97884.47;5041900;28;1401;-68
2024/01/14 01:17:27;;;;;;;;;;;-2.80;99.90;;;-3.97;100.00;97869.94;5024768;28;1980;-68
2024/01/14 01:19:54;;;;;;;;;;;-2.80;99.90;;;-3.81;100.00;97866.84;5042481;28;1460;-66
2024/01/14 01:22:21;;;;;;;;;;;-2.90;99.90;;;-3.98;100.00;97881.75;5041488;28;1523;-67
2024/01/14 01:24:48;;;;;;;;;;;-2.80;99.90;;;-4.04;100.00;97874.91;5043147;28;1401;-68
2024/01/14 01:27:15;;;;;;;;;;;-2.80;99.90;;;-3.91;100.00;97885.28;5022998;28;3057;-68
2024/01/14 01:29:42;;;;;;;;;;;-2.90;99.90;;;-3.80;100.00;97877.03;5041694;28;1389;-68
2024/01/14 01:32:09;;;;;;;;;;;-2.70;99.90;;;-3.91;100.00;97877.66;5023361;28;1305;-67
2024/01/14 01:34:37;;;;;;;;;;;-2.60;99.90;;;-3.95;100.00;97878.44;5042731;28;1317;-67
2024/01/14 01:37:04;;;;;;;;;;;-2.70;99.90;;;-3.82;100.00;97893.06;5022896;28;1895;-68
2024/01/14 01:39:31;;;;;;;;;;;-2.60;99.90;;;-3.94;100.00;97886.06;5042715;28;1290;-67
2024/01/14 01:41:59;;;;;;;;;;;-2.60;99.90;;;-3.89;100.00;97889.56;5022183;28;2735;-67
2024/01/14 01:44:26;;;;;;;;;;;-2.70;99.90;;;-3.94;100.00;97882.69;5041569;28;1349;-68
2024/01/14 01:46:53;;;;;;;;;;;-2.80;99.90;;;-3.88;100.00;97900.53;5024850;28;1970;-67
2024/01/14 01:49:20;;;;;;;;;;;-2.80;99.90;;;-3.91;100.00;97906.41;5028347;28;1122;-68
2024/01/14 01:51:48;;;;;;;;;;;-2.80;99.90;;;-3.84;100.00;97893.03;5010048;28;1392;-68
2024/01/14 01:54:18;;;;;;;;;;;-2.90;99.90;;;-3.88;100.00;97885.31;5046664;28;2443;-68
2024/01/14 01:56:45;;;;;;;;;;;-2.80;99.90;;;-4.04;100.00;97879.09;5045519;28;2052;-67
2024/01/14 01:59:12;;;;;;;;;;;-2.80;99.90;;;-4.22;100.00;97885.53;5026600;28;1403;-67
2024/01/14 02:01:39;;;;;;;;;;;-2.90;99.90;;;-4.06;100.00;97883.28;5025267;28;1497;-68
2024/01/14 02:04:07;;;;;;;;;;;-2.90;99.90;;;-4.03;100.00;97880.81;5045707;28;1386;-68
2024/01/14 02:06:35;;;;;;;;;;;-2.90;99.90;;;-3.98;100.00;97876.69;5026707;28;1477;-68
2024/01/14 02:09:02;;;;;;;;;;;-2.90;99.90;;;-3.93;100.00;97872.56;5027659;28;3049;-67
2024/01/14 02:11:28;;;;;;;;;;;-2.90;99.90;;;-4.14;100.00;97880.59;5045300;28;1247;-68
2024/01/14 02:13:55;;;;;;;;;;;-2.90;99.90;;;-4.11;100.00;97869.66;5027200;28;1376;-66
2024/01/14 02:16:22;;;;;;;;;;;-2.80;99.90;;;-4.13;100.00;97871.31;5045544;28;1902;-68
2024/01/14 02:18:49;;;;;;;;;;;-2.80;99.90;;;-4.23;100.00;97871.13;5026101;28;1337;-67
2024/01/14 02:21:19;;;;;;;;;;;-2.90;99.90;;;-4.22;100.00;97869.44;5044986;28;1519;-67
2024/01/14 02:23:51;;;;;;;;;;;-2.90;99.90;;;-4.16;100.00;97872.13;5026961;28;1929;-69
2024/01/14 02:26:17;;;;;;;;;;;-2.90;99.90;;;-4.08;100.00;97872.25;5025672;28;1454;-68
2024/01/14 02:28:48;;;;;;;;;;;-3.00;99.90;;;-3.98;100.00;97876.69;5043752;28;1403;-67
2024/01/14 02:31:15;;;;;;;;;;;-2.90;99.90;;;-3.81;100.00;97875.34;5025378;28;1488;-68
2024/01/14 02:33:42;;;;;;;;;;;-2.80;99.90;;;-3.74;100.00;97865.28;5045847;28;1437;-68
2024/01/14 02:36:09;;;;;;;;;;;-2.80;99.90;;;-3.78;100.00;97866.94;5045101;28;1818;-67
2024/01/14 02:38:36;;;;;;;;;;;-2.70;99.90;;;-3.87;100.00;97864.22;5027170;28;1902;-67
2024/01/14 02:41:03;;;;;;;;;;;-2.70;99.90;;;-3.59;100.00;97863.03;5009402;28;1466;-68
2024/01/14 02:43:29;;;;;;;;;;;-2.70;99.90;;;-3.55;100.00;97863.97;5026521;28;1392;-69
2024/01/14 02:45:56;;;;;;;;;;;-2.70;99.90;;;-3.89;100.00;97859.13;5025208;28;1424;-67
2024/01/14 02:48:23;;;;;;;;;;;-2.60;99.90;;;-3.72;100.00;97851.81;5043895;28;1405;-67
2024/01/14 02:50:50;;;;;;;;;;;-2.70;99.90;;;-3.72;100.00;97856.03;5044762;28;3233;-68
2024/01/14 02:53:17;;;;;;;;;;;-2.70;99.90;;;-3.85;100.00;97857.50;5026784;28;1375;-67
2024/01/14 02:55:44;;;;;;;;;;;-2.70;99.90;;;-3.89;100.00;97846.44;5045286;28;1433;-68
2024/01/14 02:58:11;;;;;;;;;;;-2.60;99.90;;;-3.76;100.00;97842.47;5044564;28;1907;-68
2024/01/14 03:00:38;;;;;;;;;;;-2.60;99.90;;;-3.76;100.00;97839.03;5025714;28;1162;-68
2024/01/14 03:03:05;;;;;;;;;;;-2.60;99.90;;;-3.66;100.00;97843.47;5043980;28;1448;-68
2024/01/14 03:05:32;;;;;;;;;;;-2.60;99.90;;;-3.65;100.00;97840.97;5042815;28;2059;-68
2024/01/14 03:07:58;;;;;;;;;;;-2.50;99.90;;;-3.72;100.00;97834.06;5044133;28;1406;-67
2024/01/14 03:10:25;;;;;;;;;;;-2.40;99.90;;;-3.83;100.00;97840.59;5025843;28;1343;-68
2024/01/14 03:12:52;;;;;;;;;;;-2.40;99.90;;;-3.57;100.00;97839.41;5044102;28;1357;-68
2024/01/14 03:15:19;;;;;;;;;;;-2.50;99.90;;;-3.56;100.00;97840.25;5045032;28;1402;-68
2024/01/14 03:17:46;;;;;;;;;;;-2.40;99.90;;;-3.55;100.00;97841.13;5045476;28;2001;-69
2024/01/14 03:20:13;;;;;;;;;;;-2.40;99.90;;;-3.33;100.00;97840.66;5046064;28;1504;-68
2024/01/14 03:22:39;;;;;;;;;;;-2.30;99.90;;;-3.49;100.00;97844.63;5050461;28;1405;-67
2024/01/14 03:25:07;;;;;;;;;;;-2.40;99.90;;;-3.50;100.00;97834.44;5050354;28;2074;-67
2024/01/14 03:27:33;;;;;;;;;;;-2.30;99.90;;;-3.63;100.00;97825.75;5047958;28;1251;-68
2024/01/14 03:30:02;;;;;;;;;;;-2.50;99.90;;;-4.01;100.00;97820.88;5028820;28;1256;-67
2024/01/14 03:32:28;;;;;;;;;;;-2.60;99.90;;;-3.94;100.00;97812.53;5049540;28;1361;-69
2024/01/14 03:34:55;;;;;;;;;;;-2.50;99.90;;;-3.94;100.00;97819.31;5049684;28;1311;-67
2024/01/14 03:37:22;;;;;;;;;;;-2.50;99.90;;;-3.85;100.00;97819.47;5049251;28;1906;-68
2024/01/14 03:39:49;;;;;;;;;;;-2.70;99.90;;;-3.75;100.00;97812.88;5049025;28;3051;-67
2024/01/14 03:42:16;;;;;;;;;;;-2.80;99.90;;;-3.99;100.00;97809.06;5046058;28;1594;-68
2024/01/14 03:44:43;;;;;;;;;;;-2.80;99.90;;;-3.97;100.00;97820.06;5030211;28;1437;-67
2024/01/14 03:47:10;;;;;;;;;;;-2.90;99.90;;;-3.86;100.00;97816.06;5048335;28;1443;-68
2024/01/14 03:49:37;;;;;;;;;;;-2.80;99.90;;;-3.88;100.00;97824.47;5031210;28;1351;-69
2024/01/14 03:52:04;;;;;;;;;;;-2.90;99.90;;;-4.06;100.00;97815.72;5049067;28;1338;-68
2024/01/14 03:54:31;;;;;;;;;;;-2.80;99.90;;;-3.87;100.00;97814.34;5048939;28;2158;-67
2024/01/14 03:56:57;;;;;;;;;;;-2.90;99.90;;;-3.92;100.00;97810.88;5048429;28;1902;-68
2024/01/14 03:59:25;;;;;;;;;;;-2.80;99.90;;;-3.95;100.00;97807.44;5046381;28;1290;-67
2024/01/14 04:01:51;;;;;;;;;;;-2.90;99.90;;;-3.91;100.00;97802.44;5050029;28;1236;-68
2024/01/14 04:04:18;;;;;;;;;;;-2.90;99.90;;;-3.80;100.00;97797.56;5048915;28;1365;-68
2024/01/14 04:06:48;;;;;;;;;;;-2.90;99.90;;;-3.87;100.00;97803.38;5029701;28;1919;-68
2024/01/14 04:09:15;;;;;;;;;;;-2.90;99.90;;;-3.83;100.00;97812.72;5013053;28;1907;-68
2024/01/14 04:11:42;;;;;;;;;;;-2.90;99.90;;;-3.91;100.00;97797.38;5047759;28;1342;-68
2024/01/14 04:14:09;;;;;;;;;;;-2.80;99.90;;;-4.01;100.00;97791.28;5048790;28;1466;-68
2024/01/14 04:16:37;;;;;;;;;;;-2.80;99.90;;;-3.87;100.00;97799.13;5047215;28;1440;-68
2024/01/14 04:19:04;;;;;;;;;;;-2.80;99.90;;;-3.74;100.00;97799.34;5048710;28;1996;-68
2024/01/14 04:21:31;;;;;;;;;;;-2.90;99.90;;;-4.06;100.00;97792.00;5048504;28;3119;-67
2024/01/14 04:23:59;;;;;;;;;;;-2.80;99.90;;;-3.86;100.00;97800.84;5048624;28;2555;-67
2024/01/14 04:26:26;;;;;;;;;;;-2.80;99.90;;;-3.90;100.00;97799.09;5030534;28;1347;-68
2024/01/14 04:28:53;;;;;;;;;;;-2.80;99.90;;;-3.94;100.00;97802.41;5016593;28;1331;-68
2024/01/14 04:31:20;;;;;;;;;;;-2.80;99.90;;;-4.03;100.00;97803.06;5047965;28;1287;-68
2024/01/14 04:33:48;;;;;;;;;;;-2.80;99.90;;;-4.03;100.00;97792.09;5047888;28;1347;-68
2024/01/14 04:36:15;;;;;;;;;;;-2.70;99.90;;;-3.98;100.00;97799.78;5049117;28;1338;-68
2024/01/14 04:38:42;;;;;;;;;;;-2.70;99.90;;;-3.96;100.00;97798.13;5029749;28;2148;-68
2024/01/14 04:41:09;;;;;;;;;;;-2.80;99.90;;;-3.97;100.00;97788.78;5047958;28;1359;-68
2024/01/14 04:43:35;;;;;;;;;;;-2.80;99.90;;;-4.00;100.00;97800.59;5047705;28;1371;-67
2024/01/14 04:46:02;;;;;;;;;;;-2.90;99.90;;;-3.98;100.00;97794.72;5035541;28;1315;-69
2024/01/14 04:48:29;;;;;;;;;;;-2.80;99.90;;;-3.94;100.00;97787.19;5048367;28;1244;-68
2024/01/14 04:50:56;;;;;;;;;;;-2.70;99.90;;;-4.00;100.00;97787.91;5047140;28;1421;-67
2024/01/14 04:53:23;;;;;;;;;;;-2.70;99.90;;;-4.18;100.00;97785.03;5047331;28;1992;-68
2024/01/14 04:55:51;;;;;;;;;;;-2.80;99.90;;;-4.06;100.00;97779.34;5047179;28;1428;-69
2024/01/14 04:58:17;;;;;;;;;;;-2.70;99.90;;;-4.09;100.00;97782.69;5029651;28;1895;-68
2024/01/14 05:00:44;;;;;;;;;;;-2.80;99.90;;;-4.09;100.00;97779.28;5047079;28;1416;-68
2024/01/14 05:03:12;;;;;;;;;;;-2.80;99.90;;;-4.13;100.00;97772.44;5046882;28;1605;-68
2024/01/14 05:05:38;;;;;;;;;;;-2.70;99.90;;;-4.25;100.00;97778.16;5024291;28;3198;-70
2024/01/14 05:08:05;;;;;;;;;;;-2.80;99.90;;;-4.17;100.00;97773.22;5047905;28;1429;-67
2024/01/14 05:10:32;;;;;;;;;;;-2.80;99.90;;;-4.16;100.00;97770.72;5029192;28;2667;-68
2024/01/14 05:12:59;;;;;;;;;;;-2.90;99.90;;;-4.15;100.00;97769.03;5049194;28;1357;-68
2024/01/14 05:15:29;;;;;;;;;;;-3.00;99.90;;;-4.27;100.00;97760.38;5047919;28;1687;-68
2024/01/14 05:17:55;;;;;;;;;;;-2.90;99.90;;;-4.32;100.00;97769.56;5048900;28;1979;-68
2024/01/14 05:20:22;;;;;;;;;;;-2.90;99.90;;;-4.31;100.00;97771.31;5047444;28;1264;-68
2024/01/14 05:22:49;;;;;;;;;;;-3.00;99.90;;;-4.36;100.00;97762.72;5050938;28;1303;-68
2024/01/14 05:25:16;;;;;;;;;;;-3.00;99.90;;;-4.24;100.00;97778.19;5032606;28;1977;-68
2024/01/14 05:27:42;;;;;;;;;;;-3.10;99.90;;;-4.24;100.00;97769.75;5032423;28;1276;-68
2024/01/14 05:30:10;;;;;;;;;;;-3.20;99.90;;;-4.27;100.00;97769.66;5051408;28;1287;-68
2024/01/14 05:32:37;;;;;;;;;;;-3.10;99.90;;;-4.46;100.00;97760.88;5052731;28;1239;-68
2024/01/14 05:35:07;;;;;;;;;;;-3.10;99.90;;;-4.43;100.00;97766.81;5052692;28;1509;-68
2024/01/14 05:37:33;;;;;;;;;;;-3.10;99.90;;;-4.44;100.00;97754.16;5051950;28;1906;-68
2024/01/14 05:40:00;;;;;;;;;;;-3.10;99.90;;;-4.33;100.00;97754.31;5033823;28;2537;-68
2024/01/14 05:42:27;;;;;;;;;;;-3.10;99.90;;;-4.49;100.00;97760.81;5032728;28;1386;-67
2024/01/14 05:44:57;;;;;;;;;;;-3.20;99.90;;;-4.46;100.00;97751.56;5031984;28;1442;-69
2024/01/14 05:47:23;;;;;;;;;;;-3.30;99.90;;;-4.53;100.00;97752.28;5050366;28;1240;-68
2024/01/14 05:49:50;;;;;;;;;;;-3.30;99.90;;;-4.38;100.00;97744.09;5049864;28;1409;-69
2024/01/14 05:52:17;;;;;;;;;;;-3.30;99.90;;;-4.54;100.00;97750.56;5051296;28;1645;-68
2024/01/14 05:54:44;;;;;;;;;;;-3.30;99.90;;;-4.51;100.00;97748.09;5051421;28;3079;-68
2024/01/14 05:57:11;;;;;;;;;;;-3.40;99.90;;;-4.62;100.00;97739.44;5051995;28;1303;-68
2024/01/14 05:59:39;;;;;;;;;;;-3.40;99.90;;;-4.49;100.00;97740.53;5029939;28;1903;-68
2024/01/14 06:02:06;;;;;;;;;;;-3.40;99.90;;;-4.55;100.00;97745.47;5050997;28;1425;-69
2024/01/14 06:04:33;;;;;;;;;;;-3.40;99.90;;;-4.61;100.00;97728.47;5051851;28;1436;-69
2024/01/14 06:07:00;;;;;;;;;;;-3.40;99.90;;;-4.67;100.00;97735.97;5051783;28;1227;-69
2024/01/14 06:09:27;;;;;;;;;;;-3.40;99.90;;;-4.71;100.00;97724.91;5034648;28;1275;-67
2024/01/14 06:11:54;;;;;;;;;;;-3.40;99.90;;;-4.54;100.00;97734.50;5050595;28;1351;-68
2024/01/14 06:14:21;;;;;;;;;;;-3.50;99.90;;;-4.72;100.00;97728.28;5050482;28;1817;-68
2024/01/14 06:16:51;;;;;;;;;;;-3.40;99.90;;;-4.63;100.00;97735.19;5049503;28;1382;-68
2024/01/14 06:19:18;;;;;;;;;;;-3.40;99.90;;;-4.47;100.00;97738.88;5050877;28;1905;-69
2024/01/14 06:21:45;;;;;;;;;;;-3.40;99.90;;;-4.55;100.00;97722.69;5050662;28;1975;-68
2024/01/14 06:24:15;;;;;;;;;;;-3.40;99.90;;;-4.43;100.00;97727.97;5030019;28;1889;-68
2024/01/14 06:26:42;;;;;;;;;;;-3.50;99.90;;;-4.60;100.00;97712.47;5047874;28;1248;-68
2024/01/14 06:29:09;;;;;;;;;;;-3.50;99.90;;;-4.57;100.00;97719.25;5029125;28;1246;-68
2024/01/14 06:31:36;;;;;;;;;;;-3.40;99.90;;;-4.53;100.00;97713.44;5050879;28;1469;-67
2024/01/14 06:34:03;;;;;;;;;;;-3.50;99.90;;;-4.62;100.00;97714.13;5049238;28;1389;-68
2024/01/14 06:36:30;;;;;;;;;;;-3.50;99.90;;;-4.58;100.00;97710.81;5049473;28;3095;-68
2024/01/14 06:38:57;;;;;;;;;;;-3.40;99.90;;;-4.61;100.00;97708.22;5049694;28;2013;-69
2024/01/14 06:41:24;;;;;;;;;;;-3.40;99.90;;;-4.47;100.00;97704.28;5049016;28;1503;-69
2024/01/14 06:43:51;;;;;;;;;;;-3.40;99.90;;;-4.55;100.00;97698.19;5049542;28;1309;-69
2024/01/14 06:46:18;;;;;;;;;;;-3.30;99.90;;;-4.63;100.00;97694.66;5049554;28;1338;-68
2024/01/14 06:48:45;;;;;;;;;;;-3.30;99.90;;;-4.60;100.00;97689.66;5031541;28;1315;-69
2024/01/14 06:51:12;;;;;;;;;;;-3.20;99.90;;;-4.54;100.00;97694.81;5049750;28;2391;-68
2024/01/14 06:53:39;;;;;;;;;;;-3.10;99.90;;;-4.47;100.00;97693.25;5049336;28;1327;-68
2024/01/14 06:56:06;;;;;;;;;;;-3.20;99.90;;;-4.51;100.00;97692.38;5031344;28;1680;-68
2024/01/14 06:58:33;;;;;;;;;;;-3.20;99.90;;;-4.53;100.00;97686.41;5021443;28;1950;-69
2024/01/14 07:01:01;;;;;;;;;;;-3.20;99.90;;;-4.51;100.00;97678.84;5050546;28;1363;-67
2024/01/14 07:03:29;;;;;;;;;;;-3.20;99.90;;;-4.64;100.00;97668.47;5044849;28;2495;-67
2024/01/14 07:05:56;;;;;;;;;;;-3.20;99.90;;;-4.74;100.00;97663.25;5049812;28;1021;-67
2024/01/14 07:08:24;;;;;;;;;;;-3.30;99.90;;;-4.70;100.00;97670.03;5026420;28;1316;-69
2024/01/14 07:10:51;;;;;;;;;;;-3.30;99.90;;;-4.70;100.00;97665.84;5049611;28;2590;-69
2024/01/14 07:13:17;;;;;;;;;;;-3.30;99.90;;;-4.73;100.00;97667.47;5050334;28;1334;-68
2024/01/14 07:15:44;;;;;;;;;;;-3.40;99.90;;;-4.63;100.00;97661.72;5051101;28;1363;-69
2024/01/14 07:18:11;;;;;;;;;;;-3.30;99.90;;;-4.76;100.00;97665.72;5050719;28;1898;-67
2024/01/14 07:20:41;;;;;;;;;;;-3.30;99.90;;;-4.62;100.00;97679.50;5031573;28;1093;-68
2024/01/14 07:23:08;;;;;;;;;;;-3.50;99.90;;;-4.75;100.00;97658.97;5030815;28;1236;-68
2024/01/14 07:25:55;;;;;;;;;;;-3.60;99.90;;;-4.79;100.00;97668.19;5032115;28;2847;-68
2024/01/14 07:28:22;;;;;;;;;;;-3.70;99.90;;;-4.88;100.00;97645.22;5032949;28;1386;-68
2024/01/14 07:30:48;;;;;;;;;;;-3.60;99.90;;;-4.76;100.00;97657.28;5052565;28;1092;-69
2024/01/14 07:33:15;;;;;;;;;;;-3.70;99.90;;;-4.79;100.00;97662.28;5048180;28;1612;-68
2024/01/14 07:35:42;;;;;;;;;;;-3.70;99.90;;;-4.74;100.00;97658.16;5050330;28;1319;-68
2024/01/14 07:38:09;;;;;;;;;;;-3.50;99.90;;;-4.69;100.00;97656.56;5045352;28;1984;-67
2024/01/14 07:40:36;;;;;;;;;;;-3.50;99.90;;;-4.73;100.00;97658.19;5046571;28;1588;-69
2024/01/14 07:43:04;;;;;;;;;;;-3.50;99.90;;;-4.88;100.00;97656.22;5049083;28;1295;-67
2024/01/14 07:45:30;;;;;;;;;;;-3.50;99.90;;;-4.75;100.00;97654.75;5013326;28;1273;-68
2024/01/14 07:47:57;;;;;;;;;;;-3.60;99.90;;;-4.87;100.00;97645.25;5048999;28;1069;-68
2024/01/14 07:50:24;;;;;;;;;;;-3.70;99.90;;;-4.86;100.00;97651.16;5030586;28;1117;-68
2024/01/14 07:52:51;;;;;;;;;;;-3.60;99.90;;;-4.78;100.00;97658.94;5029061;28;2498;-68
2024/01/14 07:55:17;;;;;;;;;;;-3.70;99.90;;;-4.75;100.00;97644.63;5046483;28;1373;-68
2024/01/14 07:57:44;;;;;;;;;;;-3.60;99.90;;;-4.89;100.00;97646.06;5048522;28;1130;-69
2024/01/14 08:00:12;;;;;;;;;;;-3.50;99.90;;;-4.92;100.00;97641.78;5051223;28;1985;-67
2024/01/14 08:02:39;;;;;;;;;;;-3.60;99.90;;;-4.98;100.00;97636.59;5049710;28;1177;-68
2024/01/14 08:05:06;;;;;;;;;;;-3.60;99.90;;;-4.83;100.00;97646.19;5030361;28;1293;-69
2024/01/14 08:07:35;;;;;;;;;;;-3.70;99.90;;;-4.94;100.00;97632.47;5030204;28;1420;-68
2024/01/14 08:10:02;;;;;;;;;;;-3.70;99.90;;;-4.89;100.00;97631.72;5048489;28;1265;-67
2024/01/14 08:12:29;;;;;;;;;;;-3.70;99.90;;;-4.86;100.00;97624.19;5048530;28;1029;-69
2024/01/14 08:14:56;;;;;;;;;;;-3.70;99.90;;;-4.91;100.00;97623.22;5048885;28;1406;-68
2024/01/14 08:17:22;;;;;;;;;;;-3.80;99.90;;;-5.06;100.00;97628.88;5048240;28;1279;-68
2024/01/14 08:19:49;;;;;;;;;;;-3.80;99.90;;;-4.87;100.00;97626.69;5049657;28;2007;-68
2024/01/14 08:22:17;;;;;;;;;;;-3.90;99.90;;;-4.95;100.00;97623.16;5031666;28;3624;-68
2024/01/14 08:24:45;;;;;;;;;;;-3.70;99.90;;;-4.83;100.00;97623.41;5048386;28;1367;-68
2024/01/14 08:27:12;;;;;;;;;;;-3.70;99.90;;;-4.89;100.00;97620.75;5029938;28;1046;-67
2024/01/14 08:29:40;;;;;;;;;;;-3.70;99.90;;;-4.98;100.00;97620.56;5049846;28;1048;-67
2024/01/14 08:32:07;;;;;;;;;;;-3.60;99.90;;;-4.70;100.00;97620.28;5049736;28;1598;-67
2024/01/14 08:34:33;;;;;;;;;;;-3.50;99.90;;;-4.81;100.00;97623.41;5048678;28;1995;-68
2024/01/14 08:37:00;;;;;;;;;;;-3.50;99.90;;;-4.77;100.00;97610.81;5048365;28;1327;-68
2024/01/14 08:39:27;;;;;;;;;;;-3.40;99.90;;;-4.92;100.00;97602.97;5048889;28;1894;-69
2024/01/14 08:41:54;;;;;;;;;;;-3.40;99.90;;;-4.89;100.00;97603.88;5025527;28;1403;-67
2024/01/14 08:44:21;;;;;;;;;;;-3.40;99.90;;;-4.67;100.00;97602.59;5047762;28;1314;-68
2024/01/14 08:46:54;;;;;;;;;;;-3.40;99.90;;;-4.67;100.00;97604.28;5013464;28;1383;-69
2024/01/14 08:49:23;;;;;;;;;;;-3.40;99.90;;;-4.98;100.00;97597.78;5028121;28;1957;-67
2024/01/14 08:51:50;;;;;;;;;;;-3.50;99.90;;;-4.85;100.00;97603.09;5047769;28;1417;-68
2024/01/14 08:54:17;;;;;;;;;;;-3.60;99.90;;;-4.81;100.00;97596.44;5045436;28;1396;-67
2024/01/14 08:56:45;;;;;;;;;;;-3.70;99.90;;;-4.86;100.00;97598.88;5045687;28;1436;-68
2024/01/14 08:59:12;;;;;;;;;;;-3.70;99.90;;;-4.86;100.00;97608.13;5046757;28;1910;-66
2024/01/14 09:01:39;;;;;;;;;;;-3.80;99.90;;;-4.76;100.00;97606.63;5028346;28;1498;-67
2024/01/14 09:04:06;;;;;;;;;;;-3.80;99.90;;;-4.93;100.00;97598.72;5046299;28;3179;-67
2024/01/14 09:06:37;;;;;;;;;;;-3.80;99.90;;;-5.08;100.00;97605.22;5049269;28;1080;-67
2024/01/14 09:09:04;;;;;;;;;;;-3.80;99.90;;;-4.93;100.00;97598.72;5031166;28;1374;-67
2024/01/14 09:11:31;;;;;;;;;;;-3.80;99.90;;;-4.88;100.00;97599.66;5045819;28;1303;-68
2024/01/14 09:13:58;;;;;;;;;;;-3.70;99.90;;;-4.89;100.00;97597.97;5046461;28;1506;-69
2024/01/14 09:16:25;;;;;;;;;;;-3.70;99.90;;;-4.67;100.00;97589.06;5046291;28;1311;-66
2024/01/14 09:18:52;;;;;;;;;;;-3.50;99.90;;;-4.97;100.00;97594.41;5046404;28;1985;-67
2024/01/14 09:21:22;;;;;;;;;;;-3.50;99.90;;;-4.92;100.00;97597.91;5048689;28;1408;-67
2024/01/14 09:23:48;;;;;;;;;;;-3.60;99.90;;;-4.90;100.00;97603.84;5047065;28;2062;-68
2024/01/14 09:26:15;;;;;;;;;;;-3.60;99.90;;;-5.09;100.00;97597.56;5028396;28;1430;-69
2024/01/14 09:28:42;;;;;;;;;;;-3.60;99.90;;;-4.96;100.00;97604.59;5048787;28;1412;-67
2024/01/14 09:31:09;;;;;;;;;;;-3.60;99.90;;;-4.99;100.00;97602.00;5046743;28;1306;-68
2024/01/14 09:33:36;;;;;;;;;;;-3.80;99.90;;;-4.92;100.00;97606.34;5026230;28;1387;-69
2024/01/14 09:36:08;;;;;;;;;;;-3.70;99.90;;;-4.78;100.00;97609.13;5047266;28;1299;-68
2024/01/14 09:38:36;;;;;;;;;;;-3.70;99.90;;;-4.79;100.00;97601.50;5024996;28;2569;-68
2024/01/14 09:41:44;;;;;;;;;;;-3.70;99.90;;;-4.76;100.00;97601.56;5029506;28;3908;-68
2024/01/14 09:44:15;;;;;;;;;;;-3.50;99.90;;;-4.94;100.00;97591.97;5026867;28;1319;-68
2024/01/14 09:46:44;;;;;;;;;;;-3.50;99.90;;;-4.88;100.00;97598.00;5047530;28;1314;-68
2024/01/14 09:49:11;;;;;;;;;;;-3.70;99.90;;;-4.80;100.00;97609.94;5026467;28;1335;-68
2024/01/14 09:51:47;;;;;;;;;;;-3.80;99.90;;;-4.89;100.00;97600.50;5029730;28;1287;-69
2024/01/14 09:54:15;;;;;;;;;;;-3.90;99.90;;;-4.97;100.00;97596.94;5024986;28;1414;-67
2024/01/14 09:56:44;;;;;;;;;;;-3.80;99.90;;;-4.99;100.00;97598.63;5026430;28;2529;-68
2024/01/14 09:59:13;;;;;;;;;;;-3.70;99.90;;;-4.94;100.00;97619.81;5046444;28;1981;-68
2024/01/14 10:01:41;;;;;;;;;;;-3.80;99.90;;;-4.78;100.00;97598.16;5028367;28;1348;-69
2024/01/14 10:04:08;;;;;;;;;;;-3.70;99.90;;;-4.72;100.00;97594.06;5024985;28;1446;-69
2024/01/14 10:06:35;;;;;;;;;;;-3.60;99.90;;;-4.69;100.00;97590.72;5047650;28;1477;-67
2024/01/14 10:09:02;;;;;;;;;;;-3.50;99.90;;;-4.57;100.00;97598.53;5053002;28;2007;-69
2024/01/14 10:11:29;;;;;;;;;;;-3.40;99.90;;;-4.75;100.00;97593.97;5049880;28;1291;-68
2024/01/14 10:13:56;;;;;;;;;;;-3.40;99.90;;;-4.53;100.00;97589.31;5050865;28;1339;-68
2024/01/14 10:16:23;;;;;;;;;;;-3.50;99.90;;;-4.39;100.00;97585.31;5051534;28;1326;-67
2024/01/14 10:19:10;;;;;;;;;;;-3.40;99.90;;;-4.30;100.00;97579.56;5033183;28;2323;-67
2024/01/14 10:21:37;;;;;;;;;;;-3.50;99.90;;;-4.52;100.00;97570.75;5050349;28;1388;-68
2024/01/14 10:24:04;;;;;;;;;;;-3.60;99.90;;;-4.35;100.00;97571.88;5051423;28;3047;-68
2024/01/14 10:26:32;;;;;;;;;;;-3.60;99.90;;;-4.64;100.00;97562.09;5016491;28;1340;-68
2024/01/14 10:29:05;;;;;;;;;;;-3.60;99.90;;;-4.64;100.00;97563.78;5048743;28;1275;-68
2024/01/14 10:31:32;;;;;;;;;;;-3.60;99.90;;;-4.48;100.00;97553.09;5031586;28;1285;-68
2024/01/14 10:34:02;;;;;;;;;;;-3.50;99.90;;;-4.57;100.00;97544.50;5047944;28;1263;-68
2024/01/14 10:36:33;;;;;;;;;;;-3.50;99.90;;;-4.56;100.00;97547.06;5051204;28;1270;-67
2024/01/14 10:39:01;;;;;;;;;;;-3.50;99.90;;;-4.44;100.00;97541.31;5013716;28;2240;-68
2024/01/14 10:41:29;;;;;;;;;;;-3.50;99.90;;;-4.45;100.00;97535.41;5033883;28;1323;-66
2024/01/14 10:43:56;;;;;;;;;;;-3.50;99.90;;;-4.52;100.00;97535.28;5032303;28;1386;-68
2024/01/14 10:46:24;;;;;;;;;;;-3.60;99.90;;;-4.43;100.00;97527.81;5048813;28;1433;-67
2024/01/14 10:49:08;;;;;;;;;;;-3.60;99.90;;;-4.34;100.00;97517.81;5026017;28;1386;-68
2024/01/14 10:51:42;;;;;;;;;;;-3.50;99.90;;;-4.45;100.00;97520.22;5030357;28;2071;-67
2024/01/14 10:54:27;;;;;;;;;;;-3.40;99.90;;;-4.59;100.00;97500.56;5047331;28;1409;-68
2024/01/14 10:57:14;;;;;;;;;;;-3.50;99.90;;;-4.61;100.00;97508.13;5029766;28;1319;-69
2024/01/14 10:59:43;;;;;;;;;;;-3.40;99.90;;;-4.74;100.00;97506.22;5047581;28;1902;-68
2024/01/14 11:02:17;;;;;;;;;;;-3.60;99.90;;;-4.57;100.00;97499.75;5029598;28;1375;-68
2024/01/14 11:04:44;;;;;;;;;;;-3.50;99.90;;;-4.55;100.00;97485.41;5052926;28;1363;-68
2024/01/14 11:07:12;;;;;;;;;;;-3.70;99.90;;;-4.77;100.00;97481.69;5048031;28;3283;-67
2024/01/14 11:09:41;;;;;;;;;;;-3.60;99.90;;;-4.77;100.00;97479.16;5049335;28;2507;-68
2024/01/14 11:12:22;;;;;;;;;;;-3.60;99.90;;;-4.53;100.00;97465.19;5031064;28;1481;-68
2024/01/14 11:15:17;;;;;;;;;;;-3.70;99.90;;;-4.70;100.00;97467.44;5033681;28;1410;-68
2024/01/14 11:17:49;;;;;;;;;;;-3.70;99.90;;;-4.69;100.00;97461.56;5030884;28;1958;-68
2024/01/14 11:20:17;;;;;;;;;;;-3.70;99.90;;;-4.79;100.00;97452.97;5048766;28;1906;-68